sensor_id;sensor_type;location;lat;lon;timestamp;P1;durP1;ratioP1;P2;durP2;ratioP2
26612;SDS011;14248;57.652;11.908;2023-06-14T00:01:33;1.63;;;1.52;;
26612;SDS011;14248;57.652;11.908;2023-06-14T00:03:59;1.80;;;1.70;;
26612;SDS011;14248;57.652;11.908;2023-06-14T00:06:26;1.75;;;1.55;;
26612;SDS011;14248;57.652;11.908;2023-06-14T00:08:52;1.77;;;1.67;;
26612;SDS011;14248;57.652;11.908;2023-06-14T00:11:19;3.97;;;1.60;;
26612;SDS011;14248;57.652;11.908;2023-06-14T00:13:45;2.17;;;1.83;;
26612;SDS011;14248;57.652;11.908;2023-06-14T00:16:12;1.90;;;1.80;;
26612;SDS011;14248;57.652;11.908;2023-06-14T00:18:38;1.90;;;1.45;;
26612;SDS011;14248;57.652;11.908;2023-06-14T00:21:04;3.20;;;1.67;;
26612;SDS011;14248;57.652;11.908;2023-06-14T00:23:30;2.63;;;1.67;;
26612;SDS011;14248;57.652;11.908;2023-06-14T00:25:56;1.77;;;1.67;;
26612;SDS011;14248;57.652;11.908;2023-06-14T00:28:22;1.52;;;1.42;;
26612;SDS011;14248;57.652;11.908;2023-06-14T00:30:48;2.47;;;1.52;;
26612;SDS011;14248;57.652;11.908;2023-06-14T00:33:14;3.42;;;1.85;;
26612;SDS011;14248;57.652;11.908;2023-06-14T00:35:40;1.98;;;1.83;;
26612;SDS011;14248;57.652;11.908;2023-06-14T00:38:06;2.05;;;1.85;;
26612;SDS011;14248;57.652;11.908;2023-06-14T00:40:32;1.73;;;1.50;;
26612;SDS011;14248;57.652;11.908;2023-06-14T00:43:00;1.60;;;1.50;;
26612;SDS011;14248;57.652;11.908;2023-06-14T00:45:26;2.17;;;1.80;;
26612;SDS011;14248;57.652;11.908;2023-06-14T00:47:52;2.50;;;1.65;;
26612;SDS011;14248;57.652;11.908;2023-06-14T00:50:20;2.50;;;2.00;;
26612;SDS011;14248;57.652;11.908;2023-06-14T00:52:47;1.58;;;1.48;;
26612;SDS011;14248;57.652;11.908;2023-06-14T00:55:13;1.88;;;1.77;;
26612;SDS011;14248;57.652;11.908;2023-06-14T00:57:39;1.98;;;1.80;;
26612;SDS011;14248;57.652;11.908;2023-06-14T01:00:05;2.05;;;1.85;;
26612;SDS011;14248;57.652;11.908;2023-06-14T01:02:36;2.08;;;1.88;;
26612;SDS011;14248;57.652;11.908;2023-06-14T01:05:02;4.10;;;1.75;;
26612;SDS011;14248;57.652;11.908;2023-06-14T01:07:39;1.85;;;1.75;;
26612;SDS011;14248;57.652;11.908;2023-06-14T01:15:12;1.50;;;1.40;;
26612;SDS011;14248;57.652;11.908;2023-06-14T01:17:38;3.58;;;1.88;;
26612;SDS011;14248;57.652;11.908;2023-06-14T01:20:08;1.85;;;1.70;;
26612;SDS011;14248;57.652;11.908;2023-06-14T01:22:37;1.80;;;1.70;;
26612;SDS011;14248;57.652;11.908;2023-06-14T01:25:03;2.75;;;1.80;;
26612;SDS011;14248;57.652;11.908;2023-06-14T01:27:29;2.75;;;2.15;;
26612;SDS011;14248;57.652;11.908;2023-06-14T01:29:57;1.90;;;1.73;;
26612;SDS011;14248;57.652;11.908;2023-06-14T01:32:26;2.00;;;1.80;;
26612;SDS011;14248;57.652;11.908;2023-06-14T01:34:52;4.97;;;2.00;;
26612;SDS011;14248;57.652;11.908;2023-06-14T01:37:19;2.75;;;2.45;;
26612;SDS011;14248;57.652;11.908;2023-06-14T01:39:45;2.60;;;2.03;;
26612;SDS011;14248;57.652;11.908;2023-06-14T01:42:12;2.13;;;1.90;;
26612;SDS011;14248;57.652;11.908;2023-06-14T01:44:39;2.40;;;2.10;;
26612;SDS011;14248;57.652;11.908;2023-06-14T01:47:06;3.08;;;2.40;;
26612;SDS011;14248;57.652;11.908;2023-06-14T01:49:35;2.42;;;2.13;;
26612;SDS011;14248;57.652;11.908;2023-06-14T01:52:01;1.95;;;1.70;;
26612;SDS011;14248;57.652;11.908;2023-06-14T01:54:27;2.28;;;2.10;;
26612;SDS011;14248;57.652;11.908;2023-06-14T01:56:54;2.80;;;2.13;;
26612;SDS011;14248;57.652;11.908;2023-06-14T01:59:21;3.67;;;2.10;;
26612;SDS011;14248;57.652;11.908;2023-06-14T02:01:47;2.17;;;1.98;;
26612;SDS011;14248;57.652;11.908;2023-06-14T02:04:13;2.42;;;2.00;;
26612;SDS011;14248;57.652;11.908;2023-06-14T02:06:39;2.22;;;2.00;;
26612;SDS011;14248;57.652;11.908;2023-06-14T02:09:05;2.63;;;2.08;;
26612;SDS011;14248;57.652;11.908;2023-06-14T02:11:31;1.85;;;1.75;;
26612;SDS011;14248;57.652;11.908;2023-06-14T02:13:58;2.05;;;1.85;;
26612;SDS011;14248;57.652;11.908;2023-06-14T02:16:25;2.55;;;1.90;;
26612;SDS011;14248;57.652;11.908;2023-06-14T02:18:53;1.98;;;1.88;;
26612;SDS011;14248;57.652;11.908;2023-06-14T02:21:19;2.08;;;1.88;;
26612;SDS011;14248;57.652;11.908;2023-06-14T02:23:45;2.35;;;1.95;;
26612;SDS011;14248;57.652;11.908;2023-06-14T02:26:11;1.92;;;1.73;;
26612;SDS011;14248;57.652;11.908;2023-06-14T02:28:37;1.63;;;1.52;;
26612;SDS011;14248;57.652;11.908;2023-06-14T02:31:03;2.38;;;2.10;;
26612;SDS011;14248;57.652;11.908;2023-06-14T02:33:29;2.30;;;2.10;;
26612;SDS011;14248;57.652;11.908;2023-06-14T02:35:55;2.90;;;1.80;;
26612;SDS011;14248;57.652;11.908;2023-06-14T02:38:22;2.00;;;1.80;;
26612;SDS011;14248;57.652;11.908;2023-06-14T02:40:48;1.80;;;1.67;;
26612;SDS011;14248;57.652;11.908;2023-06-14T02:43:14;2.42;;;2.00;;
26612;SDS011;14248;57.652;11.908;2023-06-14T02:45:42;1.70;;;1.58;;
26612;SDS011;14248;57.652;11.908;2023-06-14T02:48:08;2.08;;;1.70;;
26612;SDS011;14248;57.652;11.908;2023-06-14T02:50:34;2.13;;;1.80;;
26612;SDS011;14248;57.652;11.908;2023-06-14T02:53:00;2.28;;;2.08;;
26612;SDS011;14248;57.652;11.908;2023-06-14T02:55:27;2.78;;;2.22;;
26612;SDS011;14248;57.652;11.908;2023-06-14T02:57:54;1.75;;;1.65;;
26612;SDS011;14248;57.652;11.908;2023-06-14T03:00:20;2.10;;;1.80;;
26612;SDS011;14248;57.652;11.908;2023-06-14T03:02:46;2.15;;;1.85;;
26612;SDS011;14248;57.652;11.908;2023-06-14T03:05:12;2.05;;;1.85;;
26612;SDS011;14248;57.652;11.908;2023-06-14T03:07:40;1.83;;;1.73;;
26612;SDS011;14248;57.652;11.908;2023-06-14T03:10:10;2.72;;;1.90;;
26612;SDS011;14248;57.652;11.908;2023-06-14T03:12:38;2.50;;;1.88;;
26612;SDS011;14248;57.652;11.908;2023-06-14T03:15:05;1.90;;;1.80;;
26612;SDS011;14248;57.652;11.908;2023-06-14T03:17:31;2.08;;;1.88;;
26612;SDS011;14248;57.652;11.908;2023-06-14T03:20:01;2.10;;;1.90;;
26612;SDS011;14248;57.652;11.908;2023-06-14T03:22:28;2.08;;;1.88;;
26612;SDS011;14248;57.652;11.908;2023-06-14T03:24:54;1.73;;;1.63;;
26612;SDS011;14248;57.652;11.908;2023-06-14T03:27:21;2.10;;;1.90;;
26612;SDS011;14248;57.652;11.908;2023-06-14T03:29:47;3.60;;;2.00;;
26612;SDS011;14248;57.652;11.908;2023-06-14T03:32:13;2.20;;;2.00;;
26612;SDS011;14248;57.652;11.908;2023-06-14T03:34:40;3.03;;;2.65;;
26612;SDS011;14248;57.652;11.908;2023-06-14T03:37:07;2.50;;;2.30;;
26612;SDS011;14248;57.652;11.908;2023-06-14T03:39:33;2.40;;;2.20;;
26612;SDS011;14248;57.652;11.908;2023-06-14T03:41:59;2.00;;;1.90;;
26612;SDS011;14248;57.652;11.908;2023-06-14T03:44:27;3.22;;;2.10;;
26612;SDS011;14248;57.652;11.908;2023-06-14T03:46:53;2.53;;;1.80;;
26612;SDS011;14248;57.652;11.908;2023-06-14T03:49:19;2.40;;;2.20;;
26612;SDS011;14248;57.652;11.908;2023-06-14T03:51:45;2.22;;;2.03;;
26612;SDS011;14248;57.652;11.908;2023-06-14T03:54:17;2.35;;;2.15;;
26612;SDS011;14248;57.652;11.908;2023-06-14T03:56:43;2.92;;;2.10;;
26612;SDS011;14248;57.652;11.908;2023-06-14T03:59:11;2.25;;;2.05;;
26612;SDS011;14248;57.652;11.908;2023-06-14T04:01:37;2.60;;;2.40;;
26612;SDS011;14248;57.652;11.908;2023-06-14T04:04:03;2.00;;;1.90;;
26612;SDS011;14248;57.652;11.908;2023-06-14T04:06:29;2.53;;;2.30;;
26612;SDS011;14248;57.652;11.908;2023-06-14T04:08:58;2.03;;;1.83;;
26612;SDS011;14248;57.652;11.908;2023-06-14T04:11:28;1.98;;;1.63;;
26612;SDS011;14248;57.652;11.908;2023-06-14T04:13:54;2.30;;;2.10;;
26612;SDS011;14248;57.652;11.908;2023-06-14T04:16:21;2.65;;;2.42;;
26612;SDS011;14248;57.652;11.908;2023-06-14T04:18:48;2.25;;;2.05;;
26612;SDS011;14248;57.652;11.908;2023-06-14T04:21:16;2.47;;;2.28;;
26612;SDS011;14248;57.652;11.908;2023-06-14T04:23:42;2.47;;;2.17;;
26612;SDS011;14248;57.652;11.908;2023-06-14T04:26:09;2.20;;;2.00;;
26612;SDS011;14248;57.652;11.908;2023-06-14T04:28:35;5.07;;;2.13;;
26612;SDS011;14248;57.652;11.908;2023-06-14T04:31:06;3.10;;;2.15;;
26612;SDS011;14248;57.652;11.908;2023-06-14T04:33:34;2.83;;;2.20;;
26612;SDS011;14248;57.652;11.908;2023-06-14T04:36:08;2.28;;;2.08;;
26612;SDS011;14248;57.652;11.908;2023-06-14T04:38:36;2.40;;;2.20;;
26612;SDS011;14248;57.652;11.908;2023-06-14T04:41:02;3.38;;;2.25;;
26612;SDS011;14248;57.652;11.908;2023-06-14T04:43:28;3.60;;;2.30;;
26612;SDS011;14248;57.652;11.908;2023-06-14T04:45:55;2.60;;;2.40;;
26612;SDS011;14248;57.652;11.908;2023-06-14T04:48:21;2.63;;;2.42;;
26612;SDS011;14248;57.652;11.908;2023-06-14T04:50:48;3.05;;;2.10;;
26612;SDS011;14248;57.652;11.908;2023-06-14T04:53:18;3.08;;;2.58;;
26612;SDS011;14248;57.652;11.908;2023-06-14T04:55:47;2.75;;;2.33;;
26612;SDS011;14248;57.652;11.908;2023-06-14T04:58:13;2.47;;;2.28;;
26612;SDS011;14248;57.652;11.908;2023-06-14T05:00:39;2.30;;;2.10;;
26612;SDS011;14248;57.652;11.908;2023-06-14T05:03:08;2.60;;;2.10;;
26612;SDS011;14248;57.652;11.908;2023-06-14T05:05:34;3.05;;;2.40;;
26612;SDS011;14248;57.652;11.908;2023-06-14T05:08:00;2.30;;;2.05;;
26612;SDS011;14248;57.652;11.908;2023-06-14T05:10:26;4.00;;;2.88;;
26612;SDS011;14248;57.652;11.908;2023-06-14T05:12:52;2.70;;;2.50;;
26612;SDS011;14248;57.652;11.908;2023-06-14T05:15:19;2.70;;;2.50;;
26612;SDS011;14248;57.652;11.908;2023-06-14T05:17:50;3.15;;;2.38;;
26612;SDS011;14248;57.652;11.908;2023-06-14T05:20:20;2.15;;;1.95;;
26612;SDS011;14248;57.652;11.908;2023-06-14T05:22:48;2.50;;;2.28;;
26612;SDS011;14248;57.652;11.908;2023-06-14T05:25:17;2.45;;;2.25;;
26612;SDS011;14248;57.652;11.908;2023-06-14T05:27:44;2.55;;;2.17;;
26612;SDS011;14248;57.652;11.908;2023-06-14T05:30:10;2.85;;;2.28;;
26612;SDS011;14248;57.652;11.908;2023-06-14T05:32:36;2.63;;;2.42;;
26612;SDS011;14248;57.652;11.908;2023-06-14T05:35:03;4.45;;;3.10;;
26612;SDS011;14248;57.652;11.908;2023-06-14T05:37:29;3.63;;;2.80;;
26612;SDS011;14248;57.652;11.908;2023-06-14T05:39:56;3.90;;;2.80;;
26612;SDS011;14248;57.652;11.908;2023-06-14T05:42:22;4.25;;;2.47;;
26612;SDS011;14248;57.652;11.908;2023-06-14T05:44:48;4.25;;;2.53;;
26612;SDS011;14248;57.652;11.908;2023-06-14T05:47:14;3.75;;;2.75;;
26612;SDS011;14248;57.652;11.908;2023-06-14T05:49:40;2.67;;;2.47;;
26612;SDS011;14248;57.652;11.908;2023-06-14T05:52:06;3.35;;;2.67;;
26612;SDS011;14248;57.652;11.908;2023-06-14T05:54:33;4.38;;;2.72;;
26612;SDS011;14248;57.652;11.908;2023-06-14T05:56:58;3.03;;;2.80;;
26612;SDS011;14248;57.652;11.908;2023-06-14T05:59:27;3.40;;;3.10;;
26612;SDS011;14248;57.652;11.908;2023-06-14T06:01:53;3.17;;;2.67;;
26612;SDS011;14248;57.652;11.908;2023-06-14T06:04:19;3.13;;;2.63;;
26612;SDS011;14248;57.652;11.908;2023-06-14T06:06:46;3.17;;;2.88;;
26612;SDS011;14248;57.652;11.908;2023-06-14T06:09:12;2.58;;;2.38;;
26612;SDS011;14248;57.652;11.908;2023-06-14T06:11:42;4.15;;;2.72;;
26612;SDS011;14248;57.652;11.908;2023-06-14T06:14:09;3.50;;;2.70;;
26612;SDS011;14248;57.652;11.908;2023-06-14T06:16:35;3.45;;;2.80;;
26612;SDS011;14248;57.652;11.908;2023-06-14T06:19:01;3.63;;;3.13;;
26612;SDS011;14248;57.652;11.908;2023-06-14T06:21:27;3.95;;;2.80;;
26612;SDS011;14248;57.652;11.908;2023-06-14T06:23:53;4.00;;;3.08;;
26612;SDS011;14248;57.652;11.908;2023-06-14T06:26:21;4.10;;;3.00;;
26612;SDS011;14248;57.652;11.908;2023-06-14T06:28:48;4.20;;;3.08;;
26612;SDS011;14248;57.652;11.908;2023-06-14T06:31:14;5.70;;;3.20;;
26612;SDS011;14248;57.652;11.908;2023-06-14T06:33:40;3.17;;;2.83;;
26612;SDS011;14248;57.652;11.908;2023-06-14T06:36:06;4.30;;;2.50;;
26612;SDS011;14248;57.652;11.908;2023-06-14T06:38:34;2.90;;;2.60;;
26612;SDS011;14248;57.652;11.908;2023-06-14T06:41:00;4.90;;;2.97;;
26612;SDS011;14248;57.652;11.908;2023-06-14T06:43:26;2.75;;;2.53;;
26612;SDS011;14248;57.652;11.908;2023-06-14T06:45:52;3.17;;;2.45;;
26612;SDS011;14248;57.652;11.908;2023-06-14T06:48:18;2.70;;;2.50;;
26612;SDS011;14248;57.652;11.908;2023-06-14T06:50:46;3.20;;;2.80;;
26612;SDS011;14248;57.652;11.908;2023-06-14T06:53:14;3.38;;;2.90;;
26612;SDS011;14248;57.652;11.908;2023-06-14T06:55:40;2.80;;;2.60;;
26612;SDS011;14248;57.652;11.908;2023-06-14T06:58:06;4.97;;;2.50;;
26612;SDS011;14248;57.652;11.908;2023-06-14T07:00:32;2.75;;;2.40;;
26612;SDS011;14248;57.652;11.908;2023-06-14T07:02:58;5.47;;;3.08;;
26612;SDS011;14248;57.652;11.908;2023-06-14T07:05:24;3.03;;;2.60;;
26612;SDS011;14248;57.652;11.908;2023-06-14T07:07:50;3.10;;;2.60;;
26612;SDS011;14248;57.652;11.908;2023-06-14T07:10:16;3.20;;;2.60;;
26612;SDS011;14248;57.652;11.908;2023-06-14T07:12:43;3.40;;;2.88;;
26612;SDS011;14248;57.652;11.908;2023-06-14T07:15:09;3.40;;;2.60;;
26612;SDS011;14248;57.652;11.908;2023-06-14T07:17:36;4.50;;;2.80;;
26612;SDS011;14248;57.652;11.908;2023-06-14T07:20:02;3.50;;;2.35;;
26612;SDS011;14248;57.652;11.908;2023-06-14T07:22:49;4.50;;;2.40;;
26612;SDS011;14248;57.652;11.908;2023-06-14T07:25:15;3.65;;;2.28;;
26612;SDS011;14248;57.652;11.908;2023-06-14T07:27:45;3.15;;;2.47;;
26612;SDS011;14248;57.652;11.908;2023-06-14T07:30:11;2.70;;;2.50;;
26612;SDS011;14248;57.652;11.908;2023-06-14T07:32:38;2.17;;;1.98;;
26612;SDS011;14248;57.652;11.908;2023-06-14T07:35:04;2.50;;;2.30;;
26612;SDS011;14248;57.652;11.908;2023-06-14T07:37:31;2.47;;;2.28;;
26612;SDS011;14248;57.652;11.908;2023-06-14T07:39:58;2.63;;;2.42;;
26612;SDS011;14248;57.652;11.908;2023-06-14T07:42:24;2.80;;;2.38;;
26612;SDS011;14248;57.652;11.908;2023-06-14T07:44:51;2.63;;;2.42;;
26612;SDS011;14248;57.652;11.908;2023-06-14T07:47:18;3.15;;;2.58;;
26612;SDS011;14248;57.652;11.908;2023-06-14T07:49:44;3.22;;;2.92;;
26612;SDS011;14248;57.652;11.908;2023-06-14T07:54:39;3.92;;;2.78;;
26612;SDS011;14248;57.652;11.908;2023-06-14T07:57:08;4.53;;;2.40;;
26612;SDS011;14248;57.652;11.908;2023-06-14T07:59:35;4.13;;;3.00;;
26612;SDS011;14248;57.652;11.908;2023-06-14T08:02:01;4.95;;;3.15;;
26612;SDS011;14248;57.652;11.908;2023-06-14T08:04:27;3.10;;;2.67;;
26612;SDS011;14248;57.652;11.908;2023-06-14T08:06:54;3.28;;;2.95;;
26612;SDS011;14248;57.652;11.908;2023-06-14T08:09:20;3.63;;;2.83;;
26612;SDS011;14248;57.652;11.908;2023-06-14T08:11:48;4.18;;;2.63;;
26612;SDS011;14248;57.652;11.908;2023-06-14T08:14:14;4.25;;;3.00;;
26612;SDS011;14248;57.652;11.908;2023-06-14T08:16:41;4.90;;;3.15;;
26612;SDS011;14248;57.652;11.908;2023-06-14T08:19:09;4.70;;;3.28;;
26612;SDS011;14248;57.652;11.908;2023-06-14T08:21:35;3.33;;;2.65;;
26612;SDS011;14248;57.652;11.908;2023-06-14T08:24:01;3.53;;;3.05;;
26612;SDS011;14248;57.652;11.908;2023-06-14T08:26:28;4.32;;;2.75;;
26612;SDS011;14248;57.652;11.908;2023-06-14T08:28:55;4.10;;;2.90;;
26612;SDS011;14248;57.652;11.908;2023-06-14T08:31:21;4.25;;;2.80;;
26612;SDS011;14248;57.652;11.908;2023-06-14T08:33:50;3.75;;;3.03;;
26612;SDS011;14248;57.652;11.908;2023-06-14T08:36:16;4.40;;;2.80;;
26612;SDS011;14248;57.652;11.908;2023-06-14T08:38:42;5.18;;;3.08;;
26612;SDS011;14248;57.652;11.908;2023-06-14T08:41:09;3.72;;;2.70;;
26612;SDS011;14248;57.652;11.908;2023-06-14T08:43:41;6.35;;;3.20;;
26612;SDS011;14248;57.652;11.908;2023-06-14T08:46:08;2.90;;;2.58;;
26612;SDS011;14248;57.652;11.908;2023-06-14T08:48:38;4.00;;;3.10;;
26612;SDS011;14248;57.652;11.908;2023-06-14T08:51:05;3.40;;;2.70;;
26612;SDS011;14248;57.652;11.908;2023-06-14T08:53:31;3.83;;;3.00;;
26612;SDS011;14248;57.652;11.908;2023-06-14T08:56:05;3.70;;;2.80;;
26612;SDS011;14248;57.652;11.908;2023-06-14T09:01:01;3.65;;;3.13;;
26612;SDS011;14248;57.652;11.908;2023-06-14T09:03:27;4.40;;;2.90;;
26612;SDS011;14248;57.652;11.908;2023-06-14T09:06:04;4.70;;;2.63;;
26612;SDS011;14248;57.652;11.908;2023-06-14T09:08:30;4.20;;;2.72;;
26612;SDS011;14248;57.652;11.908;2023-06-14T09:10:57;3.92;;;3.20;;
26612;SDS011;14248;57.652;11.908;2023-06-14T09:13:26;6.32;;;2.78;;
26612;SDS011;14248;57.652;11.908;2023-06-14T09:15:53;3.30;;;2.70;;
26612;SDS011;14248;57.652;11.908;2023-06-14T09:18:20;5.95;;;3.20;;
26612;SDS011;14248;57.652;11.908;2023-06-14T09:20:48;7.32;;;3.70;;
26612;SDS011;14248;57.652;11.908;2023-06-14T09:23:20;4.55;;;3.20;;
26612;SDS011;14248;57.652;11.908;2023-06-14T09:25:54;3.97;;;2.58;;
26612;SDS011;14248;57.652;11.908;2023-06-14T09:28:26;4.07;;;2.88;;
26612;SDS011;14248;57.652;11.908;2023-06-14T09:30:52;3.10;;;2.78;;
26612;SDS011;14248;57.652;11.908;2023-06-14T09:33:26;4.50;;;3.08;;
26612;SDS011;14248;57.652;11.908;2023-06-14T09:35:53;6.45;;;3.20;;
26612;SDS011;14248;57.652;11.908;2023-06-14T09:40:49;4.53;;;3.25;;
26612;SDS011;14248;57.652;11.908;2023-06-14T09:43:15;5.97;;;3.50;;
26612;SDS011;14248;57.652;11.908;2023-06-14T09:45:43;6.90;;;3.15;;
26612;SDS011;14248;57.652;11.908;2023-06-14T09:48:11;4.30;;;3.08;;
26612;SDS011;14248;57.652;11.908;2023-06-14T09:50:45;3.63;;;2.97;;
26612;SDS011;14248;57.652;11.908;2023-06-14T09:53:21;6.72;;;3.72;;
26612;SDS011;14248;57.652;11.908;2023-06-14T09:55:48;6.75;;;3.53;;
26612;SDS011;14248;57.652;11.908;2023-06-14T09:58:16;5.80;;;3.22;;
26612;SDS011;14248;57.652;11.908;2023-06-14T10:00:42;6.13;;;2.97;;
26612;SDS011;14248;57.652;11.908;2023-06-14T10:03:12;3.10;;;2.90;;
26612;SDS011;14248;57.652;11.908;2023-06-14T10:05:43;3.85;;;2.72;;
26612;SDS011;14248;57.652;11.908;2023-06-14T10:08:13;5.43;;;2.97;;
26612;SDS011;14248;57.652;11.908;2023-06-14T10:10:40;3.30;;;2.80;;
26612;SDS011;14248;57.652;11.908;2023-06-14T10:13:10;3.42;;;2.90;;
26612;SDS011;14248;57.652;11.908;2023-06-14T10:23:22;4.25;;;3.00;;
26612;SDS011;14248;57.652;11.908;2023-06-14T10:25:49;2.95;;;2.75;;
26612;SDS011;14248;57.652;11.908;2023-06-14T10:28:22;4.40;;;2.83;;
26612;SDS011;14248;57.652;11.908;2023-06-14T10:31:08;3.47;;;2.97;;
26612;SDS011;14248;57.652;11.908;2023-06-14T10:33:37;4.95;;;3.22;;
26612;SDS011;14248;57.652;11.908;2023-06-14T10:38:47;2.88;;;2.60;;
26612;SDS011;14248;57.652;11.908;2023-06-14T10:41:26;4.45;;;2.65;;
26612;SDS011;14248;57.652;11.908;2023-06-14T10:46:39;2.70;;;2.50;;
26612;SDS011;14248;57.652;11.908;2023-06-14T10:49:06;2.78;;;2.58;;
26612;SDS011;14248;57.652;11.908;2023-06-14T10:51:44;4.13;;;3.00;;
26612;SDS011;14248;57.652;11.908;2023-06-14T10:54:17;2.88;;;2.60;;
26612;SDS011;14248;57.652;11.908;2023-06-14T10:56:46;4.03;;;2.70;;
26612;SDS011;14248;57.652;11.908;2023-06-14T10:59:13;5.05;;;2.78;;
26612;SDS011;14248;57.652;11.908;2023-06-14T11:04:27;3.43;;;2.40;;
26612;SDS011;14248;57.652;11.908;2023-06-14T11:13:06;2.80;;;2.50;;
26612;SDS011;14248;57.652;11.908;2023-06-14T11:15:33;2.90;;;2.25;;
26612;SDS011;14248;57.652;11.908;2023-06-14T11:18:09;2.50;;;2.30;;
26612;SDS011;14248;57.652;11.908;2023-06-14T11:20:36;3.08;;;2.10;;
26612;SDS011;14248;57.652;11.908;2023-06-14T11:23:03;2.50;;;2.00;;
26612;SDS011;14248;57.652;11.908;2023-06-14T11:25:29;2.92;;;2.45;;
26612;SDS011;14248;57.652;11.908;2023-06-14T11:27:56;2.13;;;1.90;;
26612;SDS011;14248;57.652;11.908;2023-06-14T11:30:22;3.08;;;2.22;;
26612;SDS011;14248;57.652;11.908;2023-06-14T11:32:51;2.30;;;2.10;;
26612;SDS011;14248;57.652;11.908;2023-06-14T11:35:17;4.88;;;2.40;;
26612;SDS011;14248;57.652;11.908;2023-06-14T11:37:44;2.22;;;2.03;;
26612;SDS011;14248;57.652;11.908;2023-06-14T11:40:10;3.17;;;2.13;;
26612;SDS011;14248;57.652;11.908;2023-06-14T11:42:38;2.03;;;1.92;;
26612;SDS011;14248;57.652;11.908;2023-06-14T11:45:06;5.68;;;2.17;;
26612;SDS011;14248;57.652;11.908;2023-06-14T11:47:36;2.55;;;2.03;;
26612;SDS011;14248;57.652;11.908;2023-06-14T11:50:03;2.72;;;2.40;;
26612;SDS011;14248;57.652;11.908;2023-06-14T11:52:30;3.47;;;2.20;;
26612;SDS011;14248;57.652;11.908;2023-06-14T11:54:57;4.30;;;2.22;;
26612;SDS011;14248;57.652;11.908;2023-06-14T11:57:23;20.92;;;4.60;;
26612;SDS011;14248;57.652;11.908;2023-06-14T11:59:51;10.48;;;2.80;;
26612;SDS011;14248;57.652;11.908;2023-06-14T12:02:18;2.60;;;2.40;;
26612;SDS011;14248;57.652;11.908;2023-06-14T12:04:46;4.88;;;2.42;;
26612;SDS011;14248;57.652;11.908;2023-06-14T12:07:16;4.07;;;2.35;;
26612;SDS011;14248;57.652;11.908;2023-06-14T12:10:27;2.50;;;2.00;;
26612;SDS011;14248;57.652;11.908;2023-06-14T12:12:38;3.25;;;2.50;;
26612;SDS011;14248;57.652;11.908;2023-06-14T12:15:08;2.72;;;2.35;;
26612;SDS011;14248;57.652;11.908;2023-06-14T12:17:38;5.10;;;1.92;;
26612;SDS011;14248;57.652;11.908;2023-06-14T12:20:10;2.83;;;2.20;;
26612;SDS011;14248;57.652;11.908;2023-06-14T12:22:59;2.55;;;2.25;;
26612;SDS011;14248;57.652;11.908;2023-06-14T12:25:35;5.65;;;2.33;;
26612;SDS011;14248;57.652;11.908;2023-06-14T12:28:12;3.22;;;2.40;;
26612;SDS011;14248;57.652;11.908;2023-06-14T12:30:38;2.53;;;1.95;;
26612;SDS011;14248;57.652;11.908;2023-06-14T12:33:04;2.53;;;2.33;;
26612;SDS011;14248;57.652;11.908;2023-06-14T12:35:31;3.50;;;2.20;;
26612;SDS011;14248;57.652;11.908;2023-06-14T12:37:57;3.40;;;2.20;;
26612;SDS011;14248;57.652;11.908;2023-06-14T12:40:23;2.65;;;2.45;;
26612;SDS011;14248;57.652;11.908;2023-06-14T12:42:49;2.97;;;2.10;;
26612;SDS011;14248;57.652;11.908;2023-06-14T12:45:15;2.35;;;2.15;;
26612;SDS011;14248;57.652;11.908;2023-06-14T12:47:41;2.55;;;2.30;;
26612;SDS011;14248;57.652;11.908;2023-06-14T12:50:07;2.88;;;2.05;;
26612;SDS011;14248;57.652;11.908;2023-06-14T12:52:34;3.05;;;2.38;;
26612;SDS011;14248;57.652;11.908;2023-06-14T12:55:01;2.70;;;2.00;;
26612;SDS011;14248;57.652;11.908;2023-06-14T12:57:29;2.20;;;2.00;;
26612;SDS011;14248;57.652;11.908;2023-06-14T12:59:55;4.03;;;1.88;;
26612;SDS011;14248;57.652;11.908;2023-06-14T13:02:22;2.88;;;2.17;;
26612;SDS011;14248;57.652;11.908;2023-06-14T13:04:49;3.00;;;2.35;;
26612;SDS011;14248;57.652;11.908;2023-06-14T13:07:16;4.18;;;2.03;;
26612;SDS011;14248;57.652;11.908;2023-06-14T13:09:42;2.80;;;2.47;;
26612;SDS011;14248;57.652;11.908;2023-06-14T13:12:11;3.55;;;2.20;;
26612;SDS011;14248;57.652;11.908;2023-06-14T13:14:38;4.05;;;2.10;;
26612;SDS011;14248;57.652;11.908;2023-06-14T13:17:05;3.90;;;2.20;;
26612;SDS011;14248;57.652;11.908;2023-06-14T13:19:32;3.47;;;2.13;;
26612;SDS011;14248;57.652;11.908;2023-06-14T13:21:57;5.07;;;2.40;;
26612;SDS011;14248;57.652;11.908;2023-06-14T13:24:23;4.70;;;2.00;;
26612;SDS011;14248;57.652;11.908;2023-06-14T13:26:50;5.05;;;2.28;;
26612;SDS011;14248;57.652;11.908;2023-06-14T13:29:16;2.58;;;2.25;;
26612;SDS011;14248;57.652;11.908;2023-06-14T13:31:42;4.85;;;2.10;;
26612;SDS011;14248;57.652;11.908;2023-06-14T13:34:07;4.72;;;2.30;;
26612;SDS011;14248;57.652;11.908;2023-06-14T13:36:33;6.07;;;2.08;;
26612;SDS011;14248;57.652;11.908;2023-06-14T13:39:00;3.03;;;2.00;;
26612;SDS011;14248;57.652;11.908;2023-06-14T13:41:27;2.58;;;1.45;;
26612;SDS011;14248;57.652;11.908;2023-06-14T13:43:59;4.40;;;2.00;;
26612;SDS011;14248;57.652;11.908;2023-06-14T13:46:26;4.65;;;1.80;;
26612;SDS011;14248;57.652;11.908;2023-06-14T13:48:52;3.13;;;2.13;;
26612;SDS011;14248;57.652;11.908;2023-06-14T13:51:19;2.20;;;2.00;;
26612;SDS011;14248;57.652;11.908;2023-06-14T13:53:46;4.20;;;2.10;;
26612;SDS011;14248;57.652;11.908;2023-06-14T13:56:12;2.80;;;1.98;;
26612;SDS011;14248;57.652;11.908;2023-06-14T13:58:38;2.85;;;2.00;;
26612;SDS011;14248;57.652;11.908;2023-06-14T14:01:04;3.60;;;1.95;;
26612;SDS011;14248;57.652;11.908;2023-06-14T14:03:30;4.05;;;1.83;;
26612;SDS011;14248;57.652;11.908;2023-06-14T14:05:56;2.60;;;2.10;;
26612;SDS011;14248;57.652;11.908;2023-06-14T14:08:21;3.42;;;1.77;;
26612;SDS011;14248;57.652;11.908;2023-06-14T14:10:47;3.35;;;1.73;;
26612;SDS011;14248;57.652;11.908;2023-06-14T14:13:13;2.90;;;1.75;;
26612;SDS011;14248;57.652;11.908;2023-06-14T14:15:39;1.70;;;1.60;;
26612;SDS011;14248;57.652;11.908;2023-06-14T14:18:05;4.28;;;2.15;;
26612;SDS011;14248;57.652;11.908;2023-06-14T14:20:31;3.55;;;2.00;;
26612;SDS011;14248;57.652;11.908;2023-06-14T14:22:57;2.35;;;2.00;;
26612;SDS011;14248;57.652;11.908;2023-06-14T14:25:22;2.63;;;1.95;;
26612;SDS011;14248;57.652;11.908;2023-06-14T14:27:48;2.83;;;1.95;;
26612;SDS011;14248;57.652;11.908;2023-06-14T14:30:14;2.63;;;1.95;;
26612;SDS011;14248;57.652;11.908;2023-06-14T14:32:41;2.20;;;1.98;;
26612;SDS011;14248;57.652;11.908;2023-06-14T14:35:08;2.50;;;1.83;;
26612;SDS011;14248;57.652;11.908;2023-06-14T14:37:34;3.28;;;1.90;;
26612;SDS011;14248;57.652;11.908;2023-06-14T14:39:59;1.95;;;1.85;;
26612;SDS011;14248;57.652;11.908;2023-06-14T14:42:25;3.67;;;2.08;;
26612;SDS011;14248;57.652;11.908;2023-06-14T14:44:52;3.13;;;1.80;;
26612;SDS011;14248;57.652;11.908;2023-06-14T14:47:17;2.28;;;2.05;;
26612;SDS011;14248;57.652;11.908;2023-06-14T14:49:43;4.10;;;2.10;;
26612;SDS011;14248;57.652;11.908;2023-06-14T14:52:09;3.45;;;1.75;;
26612;SDS011;14248;57.652;11.908;2023-06-14T14:54:35;2.28;;;2.00;;
26612;SDS011;14248;57.652;11.908;2023-06-14T14:57:01;3.90;;;1.58;;
26612;SDS011;14248;57.652;11.908;2023-06-14T14:59:27;2.15;;;1.90;;
26612;SDS011;14248;57.652;11.908;2023-06-14T15:01:52;3.28;;;2.15;;
26612;SDS011;14248;57.652;11.908;2023-06-14T15:04:18;2.67;;;2.03;;
26612;SDS011;14248;57.652;11.908;2023-06-14T15:06:44;2.83;;;1.90;;
26612;SDS011;14248;57.652;11.908;2023-06-14T15:09:10;2.60;;;1.92;;